Time;durP1;ratioP1;P1;durP2;ratioP2;P2;SDS_P1;SDS_P2;PMS_P1;PMS_P2;Temp;Humidity;BMP_temperature;BMP_pressure;BME280_temperature;BME280_humidity;BME280_pressure;Samples;Min_cycle;Max_cycle;Signal;HPM_P1;HPM_P2
2023/05/20 00:00:44;;;;;;;3.80;1.70;;;;;;;16.18;100.00;100479.02;105521;1256;74275;-50
2023/05/20 00:03:11;;;;;;;2.30;1.20;;;;;;;16.16;100.00;100481.17;105860;1254;68447;-49
2023/05/20 00:05:38;;;;;;;1.80;1.40;;;;;;;16.14;100.00;100483.79;105566;1257;73785;-48
2023/05/20 00:08:08;;;;;;;3.00;1.60;;;;;;;16.15;100.00;100483.38;105463;1257;63369;-50
2023/05/20 00:10:35;;;;;;;3.80;1.50;;;;;;;16.15;100.00;100488.27;108358;1254;60258;-49
2023/05/20 00:13:02;;;;;;;1.50;1.40;;;;;;;16.14;100.00;100493.24;105627;1251;74616;-48
2023/05/20 00:15:28;;;;;;;3.00;1.60;;;;;;;16.13;100.00;100501.25;105648;1257;69614;-49
2023/05/20 00:17:56;;;;;;;1.80;1.20;;;;;;;16.12;100.00;100507.30;105500;1257;72538;-49
2023/05/20 00:20:23;;;;;;;3.90;1.20;;;;;;;16.09;100.00;100511.63;107678;1251;61958;-50
2023/05/20 00:22:50;;;;;;;3.40;1.60;;;;;;;16.08;100.00;100528.00;107537;1253;61902;-49
2023/05/20 00:25:17;;;;;;;1.30;1.20;;;;;;;16.07;100.00;100541.27;105547;1257;74600;-50
2023/05/20 00:27:45;;;;;;;4.70;1.50;;;;;;;16.04;100.00;100544.17;105613;1256;69420;-49
2023/05/20 00:30:11;;;;;;;2.20;0.90;;;;;;;16.03;100.00;100545.64;105616;1253;72728;-48
2023/05/20 00:32:38;;;;;;;5.00;1.70;;;;;;;16.03;100.00;100550.73;105500;1256;62888;-47
2023/05/20 00:35:06;;;;;;;3.50;1.60;;;;;;;16.03;100.00;100553.98;105444;1251;60833;-50
2023/05/20 00:37:32;;;;;;;2.40;1.60;;;;;;;16.03;100.00;100553.25;105470;1251;71155;-49
2023/05/20 00:39:59;;;;;;;3.60;1.20;;;;;;;16.04;100.00;100553.75;105463;1253;68238;-49
2023/05/20 00:42:27;;;;;;;3.10;1.40;;;;;;;16.05;100.00;100554.43;105511;1257;71585;-50
2023/05/20 00:44:54;;;;;;;1.60;1.30;;;;;;;16.04;100.00;100556.80;106882;1251;63287;-50
2023/05/20 00:47:29;;;;;;;2.20;1.30;;;;;;;16.04;100.00;100558.81;105440;1254;61354;-51
2023/05/20 00:49:56;;;;;;;3.00;1.40;;;;;;;16.04;100.00;100559.73;105907;1258;72676;-50
2023/05/20 00:52:22;;;;;;;2.10;1.60;;;;;;;16.02;100.00;100559.47;105455;1254;68091;-51
2023/05/20 00:54:50;;;;;;;1.60;1.40;;;;;;;16.00;100.00;100558.71;105345;1256;72933;-50
2023/05/20 00:57:17;;;;;;;3.50;1.70;;;;;;;15.98;100.00;100558.12;105495;1254;62369;-51
2023/05/20 00:59:43;;;;;;;2.10;1.50;;;;;;;15.94;100.00;100560.48;105404;1260;60535;-50
2023/05/20 01:02:10;;;;;;;1.20;1.10;;;;;;;15.91;100.00;100557.59;105411;1257;74093;-51
2023/05/20 01:04:37;;;;;;;2.40;1.40;;;;;;;15.87;100.00;100558.70;105463;1253;69950;-50
2023/05/20 01:07:04;;;;;;;2.70;1.50;;;;;;;15.84;100.00;100558.31;106649;1254;72442;-51
2023/05/20 01:09:31;;;;;;;1.50;1.40;;;;;;;15.83;100.00;100560.55;105540;1254;60932;-51
2023/05/20 01:12:10;;;;;;;2.20;1.20;;;;;;;15.79;100.00;100564.59;105275;1254;61348;-50
2023/05/20 01:14:42;;;;;;;3.60;1.60;;;;;;;15.77;100.00;100559.81;105518;1257;72640;-51
2023/05/20 01:17:11;;;;;;;1.10;1.00;;;;;;;15.75;100.00;100560.98;107452;1253;67952;-51
2023/05/20 01:19:44;;;;;;;4.00;1.70;;;;;;;15.74;100.00;100561.27;105383;1254;73722;-50
2023/05/20 01:22:12;;;;;;;4.50;1.50;;;;;;;15.69;100.00;100558.14;105383;1258;62604;-51
2023/05/20 01:24:47;;;;;;;1.80;1.60;;;;;;;15.65;100.00;100560.00;105576;1253;61247;-51
2023/05/20 01:27:14;;;;;;;1.30;1.20;;;;;;;15.63;100.00;100563.19;105792;1255;74319;-50
2023/05/20 01:29:41;;;;;;;3.00;1.30;;;;;;;15.63;100.00;100560.48;105436;1251;68710;-51
2023/05/20 01:32:15;;;;;;;2.90;1.90;;;;;;;15.61;100.00;100560.73;105335;1254;71734;-51
2023/05/20 01:34:42;;;;;;;4.10;1.60;;;;;;;15.55;100.00;100563.41;109192;1253;64139;-51
2023/05/20 01:37:09;;;;;;;2.70;1.60;;;;;;;15.51;100.00;100555.98;109058;1253;60780;-51
2023/05/20 01:39:36;;;;;;;2.20;1.70;;;;;;;15.50;100.00;100556.58;109045;1252;75721;-52
2023/05/20 01:42:04;;;;;;;1.50;1.40;;;;;;;15.48;100.00;100554.73;109151;1251;67036;-52
2023/05/20 01:44:30;;;;;;;1.80;1.50;;;;;;;15.47;100.00;100555.70;109022;1253;72365;-51
2023/05/20 01:46:58;;;;;;;2.30;2.10;;;;;;;15.46;100.00;100553.58;109151;1253;60449;-51
2023/05/20 01:49:25;;;;;;;2.60;1.70;;;;;;;15.44;100.00;100557.48;108839;1252;60644;-51
2023/05/20 01:51:57;;;;;;;4.00;1.60;;;;;;;15.41;100.00;100558.40;109175;1253;72900;-49
2023/05/20 01:54:24;;;;;;;2.90;1.50;;;;;;;15.40;100.00;100562.04;105406;1253;67994;-48
2023/05/20 01:56:52;;;;;;;2.90;1.80;;;;;;;15.40;100.00;100560.80;105380;1258;73531;-49
2023/05/20 01:59:19;;;;;;;2.80;1.40;;;;;;;15.38;100.00;100564.70;105378;1254;62325;-47
2023/05/20 02:01:46;;;;;;;3.10;1.30;;;;;;;15.36;100.00;100565.37;105274;1253;60638;-51
2023/05/20 02:04:14;;;;;;;2.20;1.50;;;;;;;15.34;100.00;100564.02;105210;1259;76739;-51
2023/05/20 02:06:41;;;;;;;2.60;1.80;;;;;;;15.33;100.00;100566.78;105170;1258;68014;-51
2023/05/20 02:09:07;;;;;;;1.60;1.40;;;;;;;15.32;100.00;100569.91;105401;1257;73422;-50
2023/05/20 02:11:35;;;;;;;1.60;1.30;;;;;;;15.30;100.00;100567.70;105623;1257;63199;-50
2023/05/20 02:14:01;;;;;;;6.70;1.50;;;;;;;15.29;100.00;100572.29;105712;1253;60960;-50
2023/05/20 02:16:29;;;;;;;3.10;1.20;;;;;;;15.25;100.00;100574.27;106934;1254;75939;-50
2023/05/20 02:18:57;;;;;;;2.00;1.60;;;;;;;15.24;100.00;100575.43;105589;1253;68197;-50
2023/05/20 02:21:24;;;;;;;1.50;1.30;;;;;;;15.24;100.00;100579.22;107511;1253;73092;-50
2023/05/20 02:23:52;;;;;;;1.80;1.50;;;;;;;15.24;100.00;100579.75;105627;1257;62217;-48
2023/05/20 02:26:19;;;;;;;6.80;2.40;;;;;;;15.24;100.00;100580.13;105552;1257;60676;-48
2023/05/20 02:28:49;;;;;;;1.60;1.30;;;;;;;15.25;100.00;100582.80;107404;1253;75304;-47
2023/05/20 02:31:16;;;;;;;1.90;1.50;;;;;;;15.24;100.00;100586.29;106317;1254;70338;-49
2023/05/20 02:33:44;;;;;;;3.20;1.70;;;;;;;15.24;100.00;100586.64;105572;1253;73005;-49
2023/05/20 02:36:11;;;;;;;2.20;1.50;;;;;;;15.26;100.00;100591.79;109127;1254;62278;-51
2023/05/20 02:38:38;;;;;;;1.40;1.30;;;;;;;15.29;100.00;100594.90;106387;1255;60509;-50
2023/05/20 02:41:05;;;;;;;2.30;1.30;;;;;;;15.30;100.00;100598.61;105580;1255;76223;-50
2023/05/20 02:43:32;;;;;;;6.20;1.20;;;;;;;15.30;100.00;100600.80;105501;1257;67667;-50
2023/05/20 02:45:59;;;;;;;2.10;1.40;;;;;;;15.29;100.00;100604.99;106469;1254;72947;-48
2023/05/20 02:48:26;;;;;;;1.10;0.90;;;;;;;15.28;100.00;100606.86;105598;1259;62228;-49
2023/05/20 02:50:53;;;;;;;1.40;1.20;;;;;;;15.26;100.00;100610.59;105507;1253;60415;-51
2023/05/20 02:53:20;;;;;;;3.40;1.30;;;;;;;15.26;100.00;100609.88;105714;1259;76369;-51
2023/05/20 02:55:47;;;;;;;2.30;1.30;;;;;;;15.24;100.00;100613.05;105532;1254;68948;-47
2023/05/20 02:58:14;;;;;;;1.10;1.00;;;;;;;15.21;100.00;100617.17;105610;1259;74786;-48
2023/05/20 03:00:42;;;;;;;1.80;1.10;;;;;;;15.20;100.00;100617.42;106273;1251;63102;-50
2023/05/20 03:03:09;;;;;;;1.10;1.00;;;;;;;15.22;100.00;100622.96;105481;1256;60562;-48
2023/05/20 03:05:41;;;;;;;1.10;1.00;;;;;;;15.22;100.00;100625.27;105585;1259;76264;-48
2023/05/20 03:08:19;;;;;;;2.20;1.40;;;;;;;15.24;100.00;100626.39;109175;1256;66778;-50
2023/05/20 03:10:47;;;;;;;1.40;1.10;;;;;;;15.24;100.00;100629.84;108985;1253;71161;-51
2023/05/20 03:13:14;;;;;;;3.30;1.30;;;;;;;15.20;100.00;100628.63;107428;1258;61730;-49
2023/05/20 03:15:41;;;;;;;2.80;1.00;;;;;;;15.18;100.00;100631.12;105560;1253;60505;-48
2023/05/20 03:18:08;;;;;;;3.40;1.20;;;;;;;15.19;100.00;100630.66;105617;1253;74276;-48
2023/05/20 03:20:38;;;;;;;2.50;1.20;;;;;;;15.23;100.00;100633.16;105460;1256;66844;-48
2023/05/20 03:23:06;;;;;;;1.50;1.10;;;;;;;15.26;100.00;100631.54;105505;1258;81513;-48
2023/05/20 03:25:35;;;;;;;1.60;1.10;;;;;;;15.27;100.00;100634.77;105493;1259;60652;-51
2023/05/20 03:28:02;;;;;;;2.80;1.20;;;;;;;15.26;100.00;100638.27;106523;1256;60497;-48
2023/05/20 03:30:30;;;;;;;2.70;1.20;;;;;;;15.26;100.00;100640.08;105946;1253;73460;-49
2023/05/20 03:32:57;;;;;;;1.20;1.10;;;;;;;15.25;100.00;100639.77;105503;1257;68124;-50
2023/05/20 03:35:24;;;;;;;1.80;1.10;;;;;;;15.25;100.00;100641.39;106152;1255;71517;-50
2023/05/20 03:37:52;;;;;;;1.80;1.20;;;;;;;15.24;100.00;100637.46;109215;1253;64188;-51
2023/05/20 03:40:20;;;;;;;2.50;1.60;;;;;;;15.22;100.00;100642.26;109085;1259;59232;-52
2023/05/20 03:42:48;;;;;;;1.40;1.10;;;;;;;15.22;100.00;100645.35;105438;1258;72356;-50
2023/05/20 03:45:17;;;;;;;3.20;1.00;;;;;;;15.24;100.00;100646.81;105538;1253;71738;-49
2023/05/20 03:47:52;;;;;;;1.80;1.10;;;;;;;15.28;100.00;100647.37;105555;1256;75161;-49
2023/05/20 03:50:19;;;;;;;2.40;1.00;;;;;;;15.32;100.00;100643.70;105307;1259;63139;-49
2023/05/20 03:52:46;;;;;;;1.70;1.30;;;;;;;15.35;100.00;100647.16;105540;1253;60781;-49
2023/05/20 03:55:13;;;;;;;1.50;0.90;;;;;;;15.38;100.00;100647.20;105004;1253;73374;-49
2023/05/20 03:57:41;;;;;;;2.40;1.20;;;;;;;15.41;100.00;100646.45;104962;1257;66483;-50
2023/05/20 04:00:13;;;;;;;3.10;1.40;;;;;;;15.44;100.00;100649.73;105347;1253;73201;-50
2023/05/20 04:02:43;;;;;;;1.40;1.30;;;;;;;15.47;100.00;100652.45;105281;1257;60593;-50
2023/05/20 04:05:11;;;;;;;1.30;1.20;;;;;;;15.48;100.00;100653.86;107917;1254;61808;-48
2023/05/20 04:07:38;;;;;;;1.20;1.00;;;;;;;15.50;100.00;100659.33;104984;1255;73896;-51
2023/05/20 04:10:06;;;;;;;1.00;0.80;;;;;;;15.54;100.00;100663.90;104895;1259;69638;-48
2023/05/20 04:12:34;;;;;;;1.40;0.90;;;;;;;15.57;100.00;100670.98;105349;1256;72003;-49
2023/05/20 04:15:01;;;;;;;2.20;1.30;;;;;;;15.58;100.00;100670.15;104831;1253;61725;-50
2023/05/20 04:17:32;;;;;;;2.90;1.00;;;;;;;15.62;100.00;100676.69;104941;1253;63108;-50
2023/05/20 04:19:59;;;;;;;1.40;1.20;;;;;;;15.66;100.00;100686.02;105034;1254;72804;-49
2023/05/20 04:22:26;;;;;;;1.50;1.10;;;;;;;15.70;100.00;100691.98;105081;1253;67946;-46
2023/05/20 04:24:53;;;;;;;2.00;1.30;;;;;;;15.70;100.00;100691.96;104941;1253;72152;-49
2023/05/20 04:27:20;;;;;;;2.10;1.10;;;;;;;15.72;100.00;100691.66;109129;1252;63407;-50
2023/05/20 04:29:47;;;;;;;4.50;1.00;;;;;;;15.76;100.00;100692.15;109156;1252;62440;-51
2023/05/20 04:32:17;;;;;;;1.60;1.10;;;;;;;15.81;100.00;100692.95;109099;1253;75635;-51
2023/05/20 04:34:45;;;;;;;4.30;1.60;;;;;;;15.84;100.00;100697.30;109157;1253;70141;-51
2023/05/20 04:37:12;;;;;;;1.50;1.00;;;;;;;15.86;100.00;100697.57;109166;1253;75287;-51
2023/05/20 04:39:39;;;;;;;2.10;1.10;;;;;;;15.90;100.00;100704.23;108830;1253;61754;-51
2023/05/20 04:42:06;;;;;;;4.80;1.10;;;;;;;15.97;100.00;100705.67;109076;1253;59844;-50
2023/05/20 04:44:33;;;;;;;2.70;1.10;;;;;;;16.05;100.00;100714.98;109064;1253;73879;-52
2023/05/20 04:47:00;;;;;;;2.10;1.30;;;;;;;16.13;100.00;100716.55;106397;1255;67906;-50
2023/05/20 04:49:28;;;;;;;1.50;1.40;;;;;;;16.18;100.00;100719.14;105011;1255;72641;-49
2023/05/20 04:51:55;;;;;;;2.70;1.20;;;;;;;16.21;100.00;100717.70;108955;1254;63028;-51
2023/05/20 04:54:22;;;;;;;2.60;1.10;;;;;;;16.24;100.00;100723.48;109066;1254;60471;-51
2023/05/20 04:56:49;;;;;;;1.60;1.20;;;;;;;16.29;100.00;100724.35;109014;1253;74098;-50
2023/05/20 04:59:16;;;;;;;2.10;1.10;;;;;;;16.32;100.00;100723.98;108938;1255;69364;-51
2023/05/20 05:01:43;;;;;;;3.80;1.10;;;;;;;16.35;100.00;100731.21;108970;1253;70875;-50
2023/05/20 05:04:10;;;;;;;4.00;1.20;;;;;;;16.37;100.00;100729.12;109058;1253;62361;-50
2023/05/20 05:06:37;;;;;;;1.60;1.10;;;;;;;16.42;100.00;100734.08;108793;1254;59350;-51
2023/05/20 05:09:04;;;;;;;2.40;1.30;;;;;;;16.47;100.00;100739.05;108822;1253;75104;-49
2023/05/20 05:11:30;;;;;;;2.00;1.10;;;;;;;16.49;100.00;100741.85;104949;1254;70123;-48
2023/05/20 05:13:57;;;;;;;4.90;1.00;;;;;;;16.53;100.00;100743.41;105010;1254;72593;-48
2023/05/20 05:16:24;;;;;;;3.50;1.30;;;;;;;16.58;100.00;100750.16;104961;1258;60817;-50
2023/05/20 05:18:51;;;;;;;3.60;1.60;;;;;;;16.67;100.00;100752.77;105103;1257;62576;-49
2023/05/20 05:21:18;;;;;;;2.40;1.30;;;;;;;16.75;100.00;100751.45;105251;1253;72927;-48
2023/05/20 05:23:45;;;;;;;1.70;1.60;;;;;;;16.81;100.00;100759.07;105043;1254;69348;-49
2023/05/20 05:26:13;;;;;;;4.60;1.50;;;;;;;16.83;100.00;100764.94;105638;1254;75481;-50
2023/05/20 05:28:41;;;;;;;3.60;1.40;;;;;;;16.82;100.00;100765.86;104916;1254;62333;-47
2023/05/20 05:31:08;;;;;;;2.60;1.80;;;;;;;16.82;100.00;100776.21;105358;1254;62547;-50
2023/05/20 05:33:35;;;;;;;2.90;1.30;;;;;;;16.80;100.00;100780.69;105048;1258;74196;-52
2023/05/20 05:36:03;;;;;;;4.50;1.20;;;;;;;16.76;100.00;100785.27;108973;1253;69375;-52
2023/05/20 05:38:30;;;;;;;1.50;1.10;;;;;;;16.76;100.00;100782.52;105266;1259;73800;-48
2023/05/20 05:40:57;;;;;;;5.40;1.10;;;;;;;16.81;100.00;100786.98;105420;1254;63189;-49
2023/05/20 05:43:24;;;;;;;1.50;1.40;;;;;;;16.84;100.00;100784.26;105097;1257;60728;-49
2023/05/20 05:45:51;;;;;;;2.20;1.10;;;;;;;16.87;100.00;100787.34;105223;1253;74244;-49
2023/05/20 05:48:17;;;;;;;3.30;1.00;;;;;;;16.90;100.00;100789.31;105054;1255;70290;-50
2023/05/20 05:50:45;;;;;;;3.40;1.00;;;;;;;16.95;100.00;100791.77;104724;1256;74541;-49
2023/05/20 05:53:12;;;;;;;1.60;1.10;;;;;;;16.98;100.00;100793.92;105119;1253;61348;-49
2023/05/20 05:55:40;;;;;;;1.90;1.20;;;;;;;17.02;100.00;100797.30;106980;1259;63889;-49
2023/05/20 05:58:07;;;;;;;0.90;0.70;;;;;;;17.10;100.00;100799.39;105001;1253;72665;-50
2023/05/20 06:00:33;;;;;;;1.00;0.90;;;;;;;17.16;100.00;100798.67;105095;1253;68327;-48
2023/05/20 06:03:00;;;;;;;1.40;0.90;;;;;;;17.20;100.00;100797.33;105536;1260;76601;-51
2023/05/20 06:05:31;;;;;;;3.30;0.80;;;;;;;17.23;100.00;100798.79;106266;1253;63930;-50
2023/05/20 06:07:58;;;;;;;3.40;0.90;;;;;;;17.33;100.00;100804.56;107047;1256;61486;-49
2023/05/20 06:10:25;;;;;;;5.50;1.50;;;;;;;17.43;100.00;100806.87;105321;1257;74991;-52
2023/05/20 06:12:52;;;;;;;2.60;1.10;;;;;;;17.48;100.00;100810.02;105528;1253;69716;-50
2023/05/20 06:15:19;;;;;;;1.10;0.90;;;;;;;17.45;100.00;100809.83;105504;1253;73958;-49
2023/05/20 06:17:46;;;;;;;2.70;0.90;;;;;;;17.42;100.00;100815.27;105555;1253;60814;-49
2023/05/20 06:20:14;;;;;;;1.70;1.20;;;;;;;17.40;100.00;100812.11;105771;1254;62246;-50
2023/05/20 06:22:42;;;;;;;0.80;0.80;;;;;;;17.38;100.00;100816.03;105590;1253;75041;-50
2023/05/20 06:25:09;;;;;;;1.30;1.20;;;;;;;17.34;100.00;100818.62;105586;1257;67493;-50
2023/05/20 06:27:36;;;;;;;3.40;1.90;;;;;;;17.32;100.00;100814.40;105445;1253;72687;-47
2023/05/20 06:30:05;;;;;;;5.20;3.00;;;;;;;17.33;100.00;100815.23;105483;1253;62745;-49
2023/05/20 06:32:32;;;;;;;4.70;1.30;;;;;;;17.38;100.00;100817.84;105210;1252;60496;-44
2023/05/20 06:34:59;;;;;;;2.00;1.10;;;;;;;17.48;100.00;100818.19;105350;1257;73640;-50
2023/05/20 06:37:26;;;;;;;2.20;1.20;;;;;;;17.59;100.00;100824.23;105746;1252;68419;-49
2023/05/20 06:39:53;;;;;;;2.50;1.50;;;;;;;17.65;100.00;100822.27;105110;1259;73613;-47
2023/05/20 06:42:21;;;;;;;2.10;1.20;;;;;;;17.69;100.00;100823.81;106782;1254;62637;-45
2023/05/20 06:45:01;;;;;;;4.80;1.10;;;;;;;17.77;100.00;100822.23;105275;1257;61282;-46
2023/05/20 06:47:43;;;;;;;2.20;1.00;;;;;;;17.82;100.00;100825.55;105206;1257;74260;-47
2023/05/20 06:50:10;;;;;;;1.00;0.70;;;;;;;17.86;100.00;100824.23;105024;1256;69070;-46
2023/05/20 06:52:37;;;;;;;4.10;0.80;;;;;;;17.89;100.00;100824.98;106181;1252;72711;-49
2023/05/20 06:55:05;;;;;;;2.30;0.80;;;;;;;17.91;100.00;100827.58;104938;1251;62634;-46
2023/05/20 06:57:33;;;;;;;1.50;0.80;;;;;;;17.95;100.00;100828.23;108937;1251;59225;-47
2023/05/20 07:00:00;;;;;;;1.40;0.90;;;;;;;17.98;100.00;100834.93;104891;1252;73447;-47
2023/05/20 07:02:28;;;;;;;0.70;0.70;;;;;;;18.01;100.00;100835.12;105444;1253;67019;-49
2023/05/20 07:04:54;;;;;;;1.70;0.90;;;;;;;18.09;100.00;100841.33;106105;1256;71688;-47
2023/05/20 07:07:22;;;;;;;1.00;0.90;;;;;;;18.16;100.00;100843.08;104874;1253;61329;-46
2023/05/20 07:09:48;;;;;;;2.10;1.00;;;;;;;18.22;100.00;100846.13;105315;1253;60533;-46
2023/05/20 07:12:15;;;;;;;1.40;0.70;;;;;;;18.30;100.00;100850.20;105433;1251;75310;-45
2023/05/20 07:14:42;;;;;;;2.20;0.80;;;;;;;18.35;100.00;100847.52;105319;1253;66782;-47
2023/05/20 07:17:10;;;;;;;1.60;1.00;;;;;;;18.38;100.00;100853.14;105525;1259;72175;-50
2023/05/20 07:19:37;;;;;;;1.80;0.80;;;;;;;18.41;100.00;100851.10;105424;1257;60900;-47
2023/05/20 07:22:04;;;;;;;3.00;0.80;;;;;;;18.47;100.00;100854.19;105313;1251;61930;-51
2023/05/20 07:24:52;;;;;;;1.60;0.90;;;;;;;18.56;100.00;100857.98;105309;1252;73577;-47
2023/05/20 07:27:19;;;;;;;6.10;1.10;;;;;;;18.58;100.00;100856.43;105488;1258;66522;-48
2023/05/20 07:29:46;;;;;;;0.90;0.70;;;;;;;18.58;100.00;100861.36;105456;1252;74272;-46
2023/05/20 07:32:12;;;;;;;2.40;1.20;;;;;;;18.56;100.00;100861.96;105356;1254;61127;-48
2023/05/20 07:34:39;;;;;;;5.70;0.90;;;;;;;18.58;100.00;100865.15;105531;1251;60444;-46
2023/05/20 07:37:08;;;;;;;2.30;0.80;;;;;;;18.57;100.00;100867.02;105600;1256;74067;-50
2023/05/20 07:39:36;;;;;;;1.60;1.10;;;;;;;18.56;100.00;100865.27;105410;1253;67295;-48
2023/05/20 07:42:05;;;;;;;3.60;0.90;;;;;;;18.55;100.00;100866.77;105518;1256;73177;-46
2023/05/20 07:44:32;;;;;;;0.90;0.80;;;;;;;18.60;100.00;100869.75;109133;1252;61244;-46
2023/05/20 07:46:59;;;;;;;2.20;1.00;;;;;;;18.66;100.00;100873.90;109202;1251;59966;-45
2023/05/20 07:49:26;;;;;;;1.30;0.90;;;;;;;18.71;100.00;100863.55;108983;1251;75187;-46
2023/05/20 07:51:53;;;;;;;3.50;1.00;;;;;;;18.75;100.00;100872.79;109183;1251;68330;-46
2023/05/20 07:54:20;;;;;;;5.00;1.40;;;;;;;18.80;100.00;100868.04;109123;1254;72369;-45
2023/05/20 07:56:49;;;;;;;1.60;0.90;;;;;;;18.84;100.00;100867.80;109140;1253;60041;-45
2023/05/20 07:59:17;;;;;;;2.90;1.10;;;;;;;18.90;100.00;100871.45;108925;1253;60283;-47
2023/05/20 08:01:46;;;;;;;1.50;1.00;;;;;;;18.99;100.00;100870.50;109160;1251;73985;-45
2023/05/20 08:04:14;;;;;;;5.50;1.20;;;;;;;19.06;100.00;100869.27;106413;1253;67902;-46
2023/05/20 08:06:43;;;;;;;3.60;0.90;;;;;;;19.15;100.00;100873.97;105778;1259;74470;-47
2023/05/20 08:09:13;;;;;;;1.60;1.30;;;;;;;19.18;100.00;100877.38;107383;1258;60494;-45
2023/05/20 08:11:44;;;;;;;3.20;1.20;;;;;;;19.18;100.00;100875.55;105423;1251;62422;-46
2023/05/20 08:14:13;;;;;;;2.40;1.10;;;;;;;19.20;100.00;100878.91;105363;1259;74026;-48
2023/05/20 08:16:42;;;;;;;2.00;1.00;;;;;;;19.21;100.00;100882.30;105629;1253;67227;-48
2023/05/20 08:19:09;;;;;;;4.80;1.40;;;;;;;19.22;100.00;100880.75;105410;1253;72526;-46
2023/05/20 08:21:36;;;;;;;2.70;1.40;;;;;;;19.25;100.00;100874.89;106268;1257;62635;-48
2023/05/20 08:24:04;;;;;;;5.90;1.40;;;;;;;19.28;100.00;100878.54;106200;1251;62231;-45
2023/05/20 08:26:30;;;;;;;6.90;1.10;;;;;;;19.34;100.00;100880.18;105365;1259;74530;-48
2023/05/20 08:28:57;;;;;;;3.20;1.00;;;;;;;19.40;100.00;100883.95;105420;1253;69660;-48
2023/05/20 08:31:24;;;;;;;2.70;1.00;;;;;;;19.45;100.00;100879.61;105445;1256;72734;-47
2023/05/20 08:33:51;;;;;;;8.40;1.00;;;;;;;19.50;100.00;100879.08;105406;1251;62657;-46
2023/05/20 08:36:18;;;;;;;4.20;0.80;;;;;;;19.57;100.00;100886.05;105346;1253;60725;-50
2023/05/20 08:38:45;;;;;;;8.70;0.90;;;;;;;19.61;100.00;100874.35;108084;1255;72546;-48
2023/05/20 08:41:12;;;;;;;6.10;0.70;;;;;;;19.65;100.00;100875.88;105540;1265;66716;-46
2023/05/20 08:43:39;;;;;;;2.20;0.80;;;;;;;19.72;100.00;100872.88;105470;1257;73728;-48
2023/05/20 08:46:06;;;;;;;2.80;0.70;;;;;;;19.76;100.00;100873.16;105436;1258;60498;-48
2023/05/20 08:48:33;;;;;;;2.50;0.80;;;;;;;19.78;100.00;100869.54;109190;1252;59921;-46
2023/05/20 08:51:01;;;;;;;1.90;0.70;;;;;;;19.81;100.00;100869.91;105760;1253;305941;-47
2023/05/20 08:54:19;;;;;;;3.20;0.70;;;;;;;19.88;100.00;100866.69;102315;1289;600437;-46
2023/05/20 08:56:46;;;;;;;2.20;0.70;;;;;;;19.91;100.00;100867.02;107567;1267;59984;-46
2023/05/20 08:59:12;;;;;;;1.50;0.70;;;;;;;19.91;100.00;100871.86;104784;1271;61713;-44
2023/05/20 09:01:43;;;;;;;3.20;0.70;;;;;;;19.96;100.00;100875.40;104632;1266;72472;-49
2023/05/20 09:04:10;;;;;;;4.90;0.70;;;;;;;20.03;100.00;100875.79;104549;1271;67283;-45
2023/05/20 09:06:46;;;;;;;3.80;0.70;;;;;;;20.09;100.00;100875.05;104545;1267;71669;-49
2023/05/20 09:09:13;;;;;;;4.50;0.70;;;;;;;20.13;100.00;100878.58;104503;1263;60461;-47
2023/05/20 09:11:40;;;;;;;4.60;0.70;;;;;;;20.20;100.00;100879.52;104720;1269;59375;-45
2023/05/20 09:14:07;;;;;;;0.90;0.70;;;;;;;20.30;100.00;100881.22;107024;1264;73434;-48
2023/05/20 09:16:34;;;;;;;4.20;0.60;;;;;;;20.37;100.00;100890.18;104915;1268;69306;-47
2023/05/20 09:19:01;;;;;;;0.70;0.60;;;;;;;20.40;100.00;100883.09;104791;1266;71987;-46
2023/05/20 09:21:28;;;;;;;6.80;0.60;;;;;;;20.41;100.00;100880.05;104872;1268;61155;-49
2023/05/20 09:23:58;;;;;;;3.80;0.60;;;;;;;20.40;100.00;100885.97;104795;1268;60540;-46
2023/05/20 09:26:27;;;;;;;2.10;0.60;;;;;;;20.40;100.00;100886.17;104693;1268;73157;-44
2023/05/20 09:28:57;;;;;;;1.90;0.70;;;;;;;20.38;100.00;100884.08;104960;1263;68823;-49
2023/05/20 09:31:34;;;;;;;0.70;0.60;;;;;;;20.40;100.00;100886.71;104616;1266;73447;-51
2023/05/20 09:34:01;;;;;;;3.30;0.60;;;;;;;20.42;100.00;100889.69;104721;1266;60592;-43
2023/05/20 09:36:29;;;;;;;2.30;0.60;;;;;;;20.42;100.00;100881.61;104649;1266;60612;-51
2023/05/20 09:39:02;;;;;;;2.80;0.70;;;;;;;20.43;100.00;100884.46;105281;1272;75777;-46
2023/05/20 09:41:38;;;;;;;6.40;0.60;;;;;;;20.44;100.00;100879.69;105308;1262;66090;-46
2023/05/20 09:44:08;;;;;;;0.70;0.50;;;;;;;20.47;100.00;100879.44;108858;1256;73300;-48
2023/05/20 09:46:35;;;;;;;0.70;0.50;;;;;;;20.51;100.00;100876.04;108245;1256;60925;-49
2023/05/20 09:49:02;;;;;;;3.90;0.50;;;;;;;20.56;100.00;100878.27;105155;1262;59560;-45
2023/05/20 09:51:28;;;;;;;2.80;0.50;;;;;;;20.60;100.00;100876.71;105036;1263;74246;-47
2023/05/20 09:53:56;;;;;;;2.90;0.70;;;;;;;20.64;100.00;100876.20;105220;1260;67744;-44
2023/05/20 09:56:22;;;;;;;2.90;0.50;;;;;;;20.69;100.00;100878.77;106230;1261;73494;-46
2023/05/20 09:58:49;;;;;;;3.90;0.50;;;;;;;20.71;100.00;100871.13;104870;1260;67256;-44
2023/05/20 10:01:16;;;;;;;0.80;0.50;;;;;;;20.75;100.00;100875.38;105173;1262;60973;-48
2023/05/20 10:03:43;;;;;;;0.80;0.50;;;;;;;20.77;100.00;100871.80;105174;1256;75527;-46
2023/05/20 10:06:19;;;;;;;2.20;0.50;;;;;;;20.78;100.00;100865.86;105152;1263;69372;-47
2023/05/20 10:08:46;;;;;;;1.50;0.50;;;;;;;20.84;100.00;100861.27;108840;1256;73154;-48
2023/05/20 10:11:38;;;;;;;3.90;0.50;;;;;;;20.89;100.00;100866.00;105595;1262;60325;-50
2023/05/20 10:14:31;;;;;;;1.50;0.50;;;;;;;20.93;100.00;100869.16;104609;1256;60315;-48
2023/05/20 10:17:20;;;;;;;2.70;0.90;;;;;;;20.93;100.00;100866.21;104993;1260;73847;-46
2023/05/20 10:19:48;;;;;;;0.60;0.50;;;;;;;20.94;100.00;100856.10;105024;1260;67314;-47
2023/05/20 10:22:25;;;;;;;1.10;0.50;;;;;;;20.96;100.00;100862.35;108794;1256;73854;-51
2023/05/20 10:25:00;;;;;;;1.60;0.70;;;;;;;20.98;100.00;100857.84;108786;1256;59690;-51
2023/05/20 10:27:26;;;;;;;3.10;0.90;;;;;;;21.00;100.00;100852.20;109009;1259;62529;-51
2023/05/20 10:29:56;;;;;;;1.80;0.40;;;;;;;21.00;100.00;100850.00;108911;1257;72840;-52
2023/05/20 10:32:27;;;;;;;3.40;1.00;;;;;;;21.03;100.00;100854.35;105142;1260;69240;-50
2023/05/20 10:35:07;;;;;;;2.70;0.50;;;;;;;21.05;100.00;100859.33;108872;1256;72045;-51
2023/05/20 10:37:42;;;;;;;2.50;0.60;;;;;;;21.08;100.00;100856.20;109004;1257;59169;-51
2023/05/20 10:40:10;;;;;;;;;;;;;;;21.09;100.00;100853.17;108996;1254;58616;-51
2023/05/20 10:42:37;;;;;;;1.00;0.40;;;;;;;21.11;100.00;100857.73;105164;1263;72110;-50
2023/05/20 10:45:05;;;;;;;2.30;0.50;;;;;;;21.11;100.00;100851.92;105035;1260;67939;-50
2023/05/20 10:47:32;;;;;;;2.00;0.40;;;;;;;21.08;100.00;100846.89;108941;1256;73009;-51
2023/05/20 10:50:00;;;;;;;1.90;0.40;;;;;;;21.08;100.00;100848.50;108886;1255;60909;-50
2023/05/20 10:52:32;;;;;;;2.00;0.90;;;;;;;21.08;100.00;100843.91;108875;1255;61082;-50
2023/05/20 10:54:59;;;;;;;0.80;0.50;;;;;;;21.10;100.00;100839.73;108930;1257;73017;-50
2023/05/20 10:57:27;;;;;;;1.50;0.60;;;;;;;21.13;100.00;100838.25;108881;1256;66779;-50
2023/05/20 10:59:54;;;;;;;0.90;0.60;;;;;;;21.15;100.00;100836.85;106208;1259;74844;-49
2023/05/20 11:02:27;;;;;;;3.00;0.40;;;;;;;21.19;100.00;100835.63;104937;1257;59821;-49
2023/05/20 11:04:55;;;;;;;4.60;0.40;;;;;;;21.27;100.00;100844.54;108982;1254;59611;-51
2023/05/20 11:07:30;;;;;;;0.70;0.40;;;;;;;21.30;100.00;100843.95;109017;1254;72025;-51
2023/05/20 11:09:57;;;;;;;1.50;0.40;;;;;;;21.29;100.00;100838.17;108883;1259;67942;-51
2023/05/20 11:12:25;;;;;;;5.60;0.40;;;;;;;21.28;100.00;100831.86;108982;1254;74186;-52
2023/05/20 11:14:52;;;;;;;0.90;0.40;;;;;;;21.34;100.00;100832.73;108230;1260;59673;-49